sensor_id;sensor_type;location;lat;lon;timestamp;pressure;altitude;pressure_sealevel;temperature;humidity
65173;BME280;69059;52.218;5.172;2023-12-07T00:00:51;101386.13;;;0.20;100.00
65173;BME280;69059;52.218;5.172;2023-12-07T00:03:18;101387.22;;;0.16;100.00
65173;BME280;69059;52.218;5.172;2023-12-07T00:05:46;101396.47;;;0.18;100.00
65173;BME280;69059;52.218;5.172;2023-12-07T00:08:14;101386.94;;;0.20;100.00
65173;BME280;69059;52.218;5.172;2023-12-07T00:10:42;101351.84;;;-0.06;100.00
65173;BME280;69059;52.218;5.172;2023-12-07T00:13:10;101401.53;;;0.20;100.00
65173;BME280;69059;52.218;5.172;2023-12-07T00:15:38;101405.88;;;0.05;100.00
65173;BME280;69059;52.218;5.172;2023-12-07T00:18:05;101401.16;;;-0.01;100.00
65173;BME280;69059;52.218;5.172;2023-12-07T00:20:33;101395.13;;;0.13;100.00
65173;BME280;69059;52.218;5.172;2023-12-07T00:23:01;101393.59;;;0.10;100.00
65173;BME280;69059;52.218;5.172;2023-12-07T00:25:29;101387.13;;;0.17;100.00
65173;BME280;69059;52.218;5.172;2023-12-07T00:27:58;101380.25;;;0.18;100.00
65173;BME280;69059;52.218;5.172;2023-12-07T00:30:26;101374.28;;;0.17;100.00
65173;BME280;69059;52.218;5.172;2023-12-07T00:32:54;101372.66;;;0.16;100.00
65173;BME280;69059;52.218;5.172;2023-12-07T00:35:22;101364.94;;;0.16;100.00
65173;BME280;69059;52.218;5.172;2023-12-07T00:37:50;101358.66;;;0.08;100.00
65173;BME280;69059;52.218;5.172;2023-12-07T00:40:17;101371.09;;;0.14;100.00
65173;BME280;69059;52.218;5.172;2023-12-07T00:42:45;101371.59;;;0.06;100.00
65173;BME280;69059;52.218;5.172;2023-12-07T00:45:15;101369.94;;;0.05;100.00
65173;BME280;69059;52.218;5.172;2023-12-07T00:47:43;101371.59;;;0.06;100.00
65173;BME280;69059;52.218;5.172;2023-12-07T00:50:12;101379.47;;;0.03;100.00
65173;BME280;69059;52.218;5.172;2023-12-07T00:52:41;101379.06;;;-0.04;100.00
65173;BME280;69059;52.218;5.172;2023-12-07T00:55:08;101380.25;;;-0.09;100.00
65173;BME280;69059;52.218;5.172;2023-12-07T00:57:38;101388.03;;;-0.11;100.00
65173;BME280;69059;52.218;5.172;2023-12-07T01:00:07;101378.09;;;-0.15;100.00
65173;BME280;69059;52.218;5.172;2023-12-07T01:02:36;101387.44;;;-0.14;100.00
65173;BME280;69059;52.218;5.172;2023-12-07T01:05:04;101384.31;;;-0.19;100.00
65173;BME280;69059;52.218;5.172;2023-12-07T01:07:33;101392.09;;;-0.21;100.00
65173;BME280;69059;52.218;5.172;2023-12-07T01:10:00;101396.50;;;-0.23;100.00
65173;BME280;69059;52.218;5.172;2023-12-07T01:12:28;101395.97;;;-0.28;100.00
65173;BME280;69059;52.218;5.172;2023-12-07T01:14:56;101405.34;;;-0.27;100.00
65173;BME280;69059;52.218;5.172;2023-12-07T01:17:24;101400.47;;;-0.31;100.00
65173;BME280;69059;52.218;5.172;2023-12-07T01:19:53;101402.13;;;-0.30;100.00
65173;BME280;69059;52.218;5.172;2023-12-07T01:22:20;101405.88;;;-0.36;100.00
65173;BME280;69059;52.218;5.172;2023-12-07T01:24:48;101412.88;;;-0.38;100.00
65173;BME280;69059;52.218;5.172;2023-12-07T01:27:16;101418.91;;;-0.39;100.00
65173;BME280;69059;52.218;5.172;2023-12-07T01:29:44;101414.59;;;-0.39;100.00
65173;BME280;69059;52.218;5.172;2023-12-07T01:32:12;101420.66;;;-0.40;100.00
65173;BME280;69059;52.218;5.172;2023-12-07T01:34:40;101424.13;;;-0.41;100.00
65173;BME280;69059;52.218;5.172;2023-12-07T01:37:10;101432.66;;;-0.40;100.00
65173;BME280;69059;52.218;5.172;2023-12-07T01:39:38;101430.28;;;-0.43;100.00
65173;BME280;69059;52.218;5.172;2023-12-07T01:42:07;101433.09;;;-0.48;100.00
65173;BME280;69059;52.218;5.172;2023-12-07T01:44:35;101436.59;;;-0.49;100.00
65173;BME280;69059;52.218;5.172;2023-12-07T01:47:04;101434.31;;;-0.53;100.00
65173;BME280;69059;52.218;5.172;2023-12-07T01:49:32;101430.19;;;-0.56;100.00
65173;BME280;69059;52.218;5.172;2023-12-07T01:52:00;101432.00;;;-0.58;100.00
65173;BME280;69059;52.218;5.172;2023-12-07T01:54:30;101443.09;;;-0.57;100.00
65173;BME280;69059;52.218;5.172;2023-12-07T01:56:58;101443.84;;;-0.55;100.00
65173;BME280;69059;52.218;5.172;2023-12-07T01:59:26;101444.66;;;-0.55;100.00
65173;BME280;69059;52.218;5.172;2023-12-07T02:01:54;101442.09;;;-0.55;100.00
65173;BME280;69059;52.218;5.172;2023-12-07T02:04:22;101449.31;;;-0.61;100.00
65173;BME280;69059;52.218;5.172;2023-12-07T02:06:51;101445.75;;;-0.59;100.00
65173;BME280;69059;52.218;5.172;2023-12-07T02:09:20;101450.22;;;-0.62;100.00
65173;BME280;69059;52.218;5.172;2023-12-07T02:11:50;101456.84;;;-0.58;100.00
65173;BME280;69059;52.218;5.172;2023-12-07T02:14:17;101448.78;;;-0.52;100.00
65173;BME280;69059;52.218;5.172;2023-12-07T02:16:50;101441.72;;;-0.49;100.00
65173;BME280;69059;52.218;5.172;2023-12-07T02:19:35;101445.19;;;-0.36;100.00
65173;BME280;69059;52.218;5.172;2023-12-07T02:22:14;101437.97;;;-0.29;100.00
65173;BME280;69059;52.218;5.172;2023-12-07T02:24:48;101445.00;;;-0.32;100.00
65173;BME280;69059;52.218;5.172;2023-12-07T02:27:34;101436.75;;;-0.23;100.00
65173;BME280;69059;52.218;5.172;2023-12-07T02:30:03;101446.66;;;-0.17;100.00
65173;BME280;69059;52.218;5.172;2023-12-07T02:32:30;101427.31;;;-0.23;100.00
65173;BME280;69059;52.218;5.172;2023-12-07T02:34:58;101436.19;;;-0.14;100.00
65173;BME280;69059;52.218;5.172;2023-12-07T02:37:28;101433.25;;;-0.08;100.00
65173;BME280;69059;52.218;5.172;2023-12-07T02:40:00;101422.88;;;-0.07;100.00
65173;BME280;69059;52.218;5.172;2023-12-07T02:42:31;101427.94;;;-0.19;100.00
65173;BME280;69059;52.218;5.172;2023-12-07T02:45:02;101416.84;;;-0.20;100.00
65173;BME280;69059;52.218;5.172;2023-12-07T02:47:30;101411.28;;;-0.26;100.00
65173;BME280;69059;52.218;5.172;2023-12-07T02:49:58;101401.38;;;-0.18;100.00
65173;BME280;69059;52.218;5.172;2023-12-07T02:52:25;101397.66;;;-0.41;100.00
65173;BME280;69059;52.218;5.172;2023-12-07T02:54:53;101401.31;;;-0.45;100.00
65173;BME280;69059;52.218;5.172;2023-12-07T02:57:21;101402.13;;;-0.30;100.00
65173;BME280;69059;52.218;5.172;2023-12-07T02:59:49;101398.34;;;-0.25;100.00
65173;BME280;69059;52.218;5.172;2023-12-07T03:02:18;101385.41;;;-0.23;100.00
65173;BME280;69059;52.218;5.172;2023-12-07T03:04:45;101380.09;;;-0.20;100.00
65173;BME280;69059;52.218;5.172;2023-12-07T03:07:13;101378.03;;;-0.28;100.00
65173;BME280;69059;52.218;5.172;2023-12-07T03:09:41;101375.38;;;-0.26;100.00
65173;BME280;69059;52.218;5.172;2023-12-07T03:12:09;101373.91;;;-0.30;100.00
65173;BME280;69059;52.218;5.172;2023-12-07T03:14:37;101386.00;;;-0.32;100.00
65173;BME280;69059;52.218;5.172;2023-12-07T03:17:04;101384.34;;;-0.33;100.00
65173;BME280;69059;52.218;5.172;2023-12-07T03:19:37;101381.03;;;-0.36;100.00
65173;BME280;69059;52.218;5.172;2023-12-07T03:22:05;101357.28;;;-0.66;100.00
65173;BME280;69059;52.218;5.172;2023-12-07T03:24:33;101394.28;;;-0.56;100.00
65173;BME280;69059;52.218;5.172;2023-12-07T03:27:01;101396.84;;;-0.42;100.00
65173;BME280;69059;52.218;5.172;2023-12-07T03:29:30;101400.97;;;-0.39;100.00
65173;BME280;69059;52.218;5.172;2023-12-07T03:31:58;101397.56;;;-0.40;100.00
65173;BME280;69059;52.218;5.172;2023-12-07T03:34:25;101386.75;;;-0.45;100.00
65173;BME280;69059;52.218;5.172;2023-12-07T03:36:54;101398.84;;;-0.47;100.00
65173;BME280;69059;52.218;5.172;2023-12-07T03:39:22;101396.38;;;-0.48;100.00
65173;BME280;69059;52.218;5.172;2023-12-07T03:41:52;101398.09;;;-0.49;100.00
65173;BME280;69059;52.218;5.172;2023-12-07T03:44:20;101391.53;;;-0.53;100.00
65173;BME280;69059;52.218;5.172;2023-12-07T03:46:48;101401.97;;;-0.56;100.00
65173;BME280;69059;52.218;5.172;2023-12-07T03:49:16;101398.50;;;-0.55;100.00
65173;BME280;69059;52.218;5.172;2023-12-07T03:51:43;101408.19;;;-0.60;100.00
65173;BME280;69059;52.218;5.172;2023-12-07T03:54:12;101399.22;;;-0.53;100.00
65173;BME280;69059;52.218;5.172;2023-12-07T03:56:40;101407.75;;;-0.52;100.00
65173;BME280;69059;52.218;5.172;2023-12-07T03:59:08;101399.69;;;-0.60;100.00
65173;BME280;69059;52.218;5.172;2023-12-07T04:01:36;101395.94;;;-0.55;100.00
65173;BME280;69059;52.218;5.172;2023-12-07T04:04:04;101397.94;;;-0.60;100.00
65173;BME280;69059;52.218;5.172;2023-12-07T04:06:32;101398.84;;;-0.61;100.00
65173;BME280;69059;52.218;5.172;2023-12-07T04:09:00;101403.97;;;-0.61;100.00
65173;BME280;69059;52.218;5.172;2023-12-07T04:11:29;101393.09;;;-0.64;100.00
65173;BME280;69059;52.218;5.172;2023-12-07T04:13:56;101405.63;;;-0.60;100.00
65173;BME280;69059;52.218;5.172;2023-12-07T04:16:24;101403.97;;;-0.61;100.00
65173;BME280;69059;52.218;5.172;2023-12-07T04:18:52;101405.63;;;-0.60;100.00
65173;BME280;69059;52.218;5.172;2023-12-07T04:21:20;101401.41;;;-0.61;100.00
65173;BME280;69059;52.218;5.172;2023-12-07T04:23:47;101389.81;;;-0.81;100.00
65173;BME280;69059;52.218;5.172;2023-12-07T04:26:15;101401.97;;;-0.70;100.00
65173;BME280;69059;52.218;5.172;2023-12-07T04:28:44;101410.22;;;-0.65;100.00
65173;BME280;69059;52.218;5.172;2023-12-07T04:31:12;101406.75;;;-0.64;100.00
65173;BME280;69059;52.218;5.172;2023-12-07T04:33:40;101403.25;;;-0.63;100.00
65173;BME280;69059;52.218;5.172;2023-12-07T04:36:08;101380.91;;;-0.75;100.00
65173;BME280;69059;52.218;5.172;2023-12-07T04:38:36;101406.53;;;-0.61;100.00
65173;BME280;69059;52.218;5.172;2023-12-07T04:41:04;101410.66;;;-0.58;100.00
65173;BME280;69059;52.218;5.172;2023-12-07T04:43:32;101405.44;;;-0.57;100.00
65173;BME280;69059;52.218;5.172;2023-12-07T04:46:01;101393.38;;;-0.69;100.00
65173;BME280;69059;52.218;5.172;2023-12-07T04:48:30;101371.78;;;-0.79;100.00
65173;BME280;69059;52.218;5.172;2023-12-07T04:50:58;101405.38;;;-0.55;100.00
65173;BME280;69059;52.218;5.172;2023-12-07T04:53:26;101407.38;;;-0.60;100.00
65173;BME280;69059;52.218;5.172;2023-12-07T04:55:53;101400.59;;;-0.61;100.00
65173;BME280;69059;52.218;5.172;2023-12-07T04:58:21;101398.75;;;-0.59;100.00
65173;BME280;69059;52.218;5.172;2023-12-07T05:00:49;101397.94;;;-0.60;100.00
65173;BME280;69059;52.218;5.172;2023-12-07T05:03:18;101401.97;;;-0.56;100.00
65173;BME280;69059;52.218;5.172;2023-12-07T05:05:46;101395.00;;;-0.54;100.00
65173;BME280;69059;52.218;5.172;2023-12-07T05:08:14;101384.19;;;-0.59;100.00
65173;BME280;69059;52.218;5.172;2023-12-07T05:10:42;101389.31;;;-0.59;100.00
65173;BME280;69059;52.218;5.172;2023-12-07T05:13:10;101397.19;;;-0.62;100.00
65173;BME280;69059;52.218;5.172;2023-12-07T05:15:38;101384.66;;;-0.66;100.00
65173;BME280;69059;52.218;5.172;2023-12-07T05:18:06;101390.63;;;-0.66;100.00
65173;BME280;69059;52.218;5.172;2023-12-07T05:20:35;101396.50;;;-0.64;100.00
65173;BME280;69059;52.218;5.172;2023-12-07T05:23:05;101384.41;;;-0.76;100.00
65173;BME280;69059;52.218;5.172;2023-12-07T05:25:33;101378.97;;;-0.72;100.00
65173;BME280;69059;52.218;5.172;2023-12-07T05:28:01;101382.09;;;-0.66;100.00
65173;BME280;69059;52.218;5.172;2023-12-07T05:30:29;101374.50;;;-0.68;100.00
65173;BME280;69059;52.218;5.172;2023-12-07T05:32:57;101372.47;;;-0.63;100.00
65173;BME280;69059;52.218;5.172;2023-12-07T05:35:25;101356.91;;;-0.60;100.00
65173;BME280;69059;52.218;5.172;2023-12-07T05:37:54;101347.19;;;-0.55;100.00
65173;BME280;69059;52.218;5.172;2023-12-07T05:40:22;101344.81;;;-0.58;100.00
65173;BME280;69059;52.218;5.172;2023-12-07T05:42:50;101333.47;;;-0.54;100.00
65173;BME280;69059;52.218;5.172;2023-12-07T05:45:18;101328.94;;;-0.50;100.00
65173;BME280;69059;52.218;5.172;2023-12-07T05:47:45;101316.31;;;-0.53;100.00
65173;BME280;69059;52.218;5.172;2023-12-07T05:50:13;101311.09;;;-0.52;100.00
65173;BME280;69059;52.218;5.172;2023-12-07T05:52:41;101306.63;;;-0.62;100.00
65173;BME280;69059;52.218;5.172;2023-12-07T05:55:10;101304.69;;;-0.59;100.00
65173;BME280;69059;52.218;5.172;2023-12-07T05:57:38;101286.47;;;-0.54;100.00
65173;BME280;69059;52.218;5.172;2023-12-07T06:00:07;101277.69;;;-0.64;100.00
65173;BME280;69059;52.218;5.172;2023-12-07T06:02:36;101280.06;;;-0.61;100.00
65173;BME280;69059;52.218;5.172;2023-12-07T06:05:04;101270.84;;;-0.64;100.00
65173;BME280;69059;52.218;5.172;2023-12-07T06:07:32;101241.69;;;-0.63;100.00
65173;BME280;69059;52.218;5.172;2023-12-07T06:10:00;101247.13;;;-0.67;100.00
65173;BME280;69059;52.218;5.172;2023-12-07T06:12:29;101228.00;;;-0.76;100.00
65173;BME280;69059;52.218;5.172;2023-12-07T06:14:57;101221.16;;;-0.63;100.00
65173;BME280;69059;52.218;5.172;2023-12-07T06:17:25;101209.06;;;-0.61;100.00
65173;BME280;69059;52.218;5.172;2023-12-07T06:19:53;101188.81;;;-0.78;100.00
65173;BME280;69059;52.218;5.172;2023-12-07T06:22:21;101172.22;;;-0.73;100.00
65173;BME280;69059;52.218;5.172;2023-12-07T06:24:49;101161.72;;;-0.82;100.00
65173;BME280;69059;52.218;5.172;2023-12-07T06:27:17;101140.63;;;-0.73;100.00
65173;BME280;69059;52.218;5.172;2023-12-07T06:29:47;101121.44;;;-0.80;100.00
65173;BME280;69059;52.218;5.172;2023-12-07T06:32:15;101089.78;;;-0.66;100.00
65173;BME280;69059;52.218;5.172;2023-12-07T06:34:43;101074.28;;;-0.78;100.00
65173;BME280;69059;52.218;5.172;2023-12-07T06:37:11;101061.03;;;-0.84;100.00
65173;BME280;69059;52.218;5.172;2023-12-07T06:39:39;101030.69;;;-0.90;100.00
65173;BME280;69059;52.218;5.172;2023-12-07T06:42:06;101012.63;;;-0.89;100.00
65173;BME280;69059;52.218;5.172;2023-12-07T06:44:35;100985.94;;;-0.99;100.00
65173;BME280;69059;52.218;5.172;2023-12-07T06:47:04;100957.47;;;-0.82;100.00
65173;BME280;69059;52.218;5.172;2023-12-07T06:49:32;100955.63;;;-0.67;100.00
65173;BME280;69059;52.218;5.172;2023-12-07T06:52:15;100936.75;;;-0.79;100.00
65173;BME280;69059;52.218;5.172;2023-12-07T06:54:43;100907.75;;;-0.79;100.00
65173;BME280;69059;52.218;5.172;2023-12-07T06:57:11;100886.41;;;-0.92;100.00
65173;BME280;69059;52.218;5.172;2023-12-07T06:59:38;100871.75;;;-0.90;100.00
65173;BME280;69059;52.218;5.172;2023-12-07T07:02:08;100864.56;;;-1.11;100.00
65173;BME280;69059;52.218;5.172;2023-12-07T07:04:36;100869.31;;;-1.04;100.00
65173;BME280;69059;52.218;5.172;2023-12-07T07:07:04;100881.38;;;-1.32;100.00
65173;BME280;69059;52.218;5.172;2023-12-07T07:09:32;100986.63;;;-1.22;100.00
65173;BME280;69059;52.218;5.172;2023-12-07T07:12:00;101015.44;;;-1.19;100.00
65173;BME280;69059;52.218;5.172;2023-12-07T07:14:27;101030.81;;;-1.19;100.00
65173;BME280;69059;52.218;5.172;2023-12-07T07:16:55;101048.56;;;-1.16;100.00
65173;BME280;69059;52.218;5.172;2023-12-07T07:19:24;101046.25;;;-0.93;100.00
65173;BME280;69059;52.218;5.172;2023-12-07T07:21:52;101049.53;;;-0.91;100.00
65173;BME280;69059;52.218;5.172;2023-12-07T07:24:21;101038.03;;;-0.98;100.00
65173;BME280;69059;52.218;5.172;2023-12-07T07:26:48;101029.13;;;-0.93;100.00
65173;BME280;69059;52.218;5.172;2023-12-07T07:29:16;101046.06;;;-0.90;100.00
65173;BME280;69059;52.218;5.172;2023-12-07T07:31:44;101052.56;;;-0.99;100.00
65173;BME280;69059;52.218;5.172;2023-12-07T07:34:12;101048.22;;;-1.11;100.00
65173;BME280;69059;52.218;5.172;2023-12-07T07:36:41;101031.25;;;-0.99;100.00
65173;BME280;69059;52.218;5.172;2023-12-07T07:39:09;101027.44;;;-1.06;100.00
65173;BME280;69059;52.218;5.172;2023-12-07T07:41:37;101028.25;;;-1.19;100.00
65173;BME280;69059;52.218;5.172;2023-12-07T07:44:05;101071.06;;;-1.21;100.00
65173;BME280;69059;52.218;5.172;2023-12-07T07:46:33;101053.41;;;-1.25;100.00
65173;BME280;69059;52.218;5.172;2023-12-07T07:49:01;101011.97;;;-1.45;100.00
65173;BME280;69059;52.218;5.172;2023-12-07T07:51:30;101036.06;;;-1.08;100.00
65173;BME280;69059;52.218;5.172;2023-12-07T07:54:00;101032.13;;;-1.13;100.00
65173;BME280;69059;52.218;5.172;2023-12-07T07:56:28;101077.88;;;-1.07;100.00
65173;BME280;69059;52.218;5.172;2023-12-07T07:58:55;101078.78;;;-1.08;100.00
65173;BME280;69059;52.218;5.172;2023-12-07T08:01:26;101124.66;;;-1.03;100.00
65173;BME280;69059;52.218;5.172;2023-12-07T08:03:54;101045.78;;;-1.13;100.00
65173;BME280;69059;52.218;5.172;2023-12-07T08:06:22;100968.69;;;-1.22;100.00
65173;BME280;69059;52.218;5.172;2023-12-07T08:08:49;100933.66;;;-1.22;100.00
65173;BME280;69059;52.218;5.172;2023-12-07T08:11:18;100879.34;;;-1.39;100.00
65173;BME280;69059;52.218;5.172;2023-12-07T08:13:46;100884.97;;;-1.22;100.00
65173;BME280;69059;52.218;5.172;2023-12-07T08:16:14;100875.63;;;-1.23;100.00
65173;BME280;69059;52.218;5.172;2023-12-07T08:18:42;100858.63;;;-0.98;100.00
65173;BME280;69059;52.218;5.172;2023-12-07T08:21:18;100835.47;;;-1.10;100.00
65173;BME280;69059;52.218;5.172;2023-12-07T08:23:51;100835.91;;;-1.28;100.00
65173;BME280;69059;52.218;5.172;2023-12-07T08:26:21;100824.59;;;-1.26;100.00
65173;BME280;69059;52.218;5.172;2023-12-07T08:28:49;100812.13;;;-1.18;100.00
65173;BME280;69059;52.218;5.172;2023-12-07T08:31:20;100798.97;;;-1.00;100.00
65173;BME280;69059;52.218;5.172;2023-12-07T08:33:50;100783.19;;;-0.94;100.00
65173;BME280;69059;52.218;5.172;2023-12-07T08:36:18;100782.25;;;-0.93;100.00
65173;BME280;69059;52.218;5.172;2023-12-07T08:38:46;100773.75;;;-0.94;100.00
65173;BME280;69059;52.218;5.172;2023-12-07T08:41:14;100762.75;;;-0.83;100.00
65173;BME280;69059;52.218;5.172;2023-12-07T08:43:43;100756.03;;;-0.97;100.00
65173;BME280;69059;52.218;5.172;2023-12-07T08:46:11;100753.56;;;-0.98;100.00
65173;BME280;69059;52.218;5.172;2023-12-07T08:48:38;100759.13;;;-1.04;100.00
65173;BME280;69059;52.218;5.172;2023-12-07T08:51:08;100758.50;;;-1.08;100.00
65173;BME280;69059;52.218;5.172;2023-12-07T08:53:37;100745.16;;;-1.00;100.00
65173;BME280;69059;52.218;5.172;2023-12-07T08:56:05;100722.91;;;-1.00;100.00
65173;BME280;69059;52.218;5.172;2023-12-07T08:58:33;100719.19;;;-0.83;100.00
65173;BME280;69059;52.218;5.172;2023-12-07T09:01:03;100725.06;;;-0.94;100.00
65173;BME280;69059;52.218;5.172;2023-12-07T09:03:35;100714.31;;;-0.99;100.00
65173;BME280;69059;52.218;5.172;2023-12-07T09:06:04;100710.66;;;-0.84;100.00
65173;BME280;69059;52.218;5.172;2023-12-07T09:08:33;100700.09;;;-0.79;100.00
65173;BME280;69059;52.218;5.172;2023-12-07T09:11:01;100695.38;;;-0.85;100.00
65173;BME280;69059;52.218;5.172;2023-12-07T09:13:30;100691.28;;;-0.88;100.00
65173;BME280;69059;52.218;5.172;2023-12-07T09:15:58;100682.47;;;-0.84;100.00
65173;BME280;69059;52.218;5.172;2023-12-07T09:18:27;100687.28;;;-0.79;100.00
65173;BME280;69059;52.218;5.172;2023-12-07T09:20:55;100716.19;;;-0.77;100.00
65173;BME280;69059;52.218;5.172;2023-12-07T09:23:22;100708.94;;;-0.83;100.00
65173;BME280;69059;52.218;5.172;2023-12-07T09:25:50;100704.78;;;-0.73;100.00
65173;BME280;69059;52.218;5.172;2023-12-07T09:28:18;100703.44;;;-0.66;100.00
65173;BME280;69059;52.218;5.172;2023-12-07T09:30:46;100705.94;;;-0.53;100.00
65173;BME280;69059;52.218;5.172;2023-12-07T09:33:14;100694.56;;;-0.62;100.00
65173;BME280;69059;52.218;5.172;2023-12-07T09:35:46;100694.06;;;-0.78;100.00
65173;BME280;69059;52.218;5.172;2023-12-07T09:38:13;100644.84;;;-1.07;100.00
65173;BME280;69059;52.218;5.172;2023-12-07T09:40:41;100698.78;;;-0.61;100.00
65173;BME280;69059;52.218;5.172;2023-12-07T09:43:09;100696.22;;;-0.61;100.00
65173;BME280;69059;52.218;5.172;2023-12-07T09:45:37;100692.72;;;-0.60;100.00
65173;BME280;69059;52.218;5.172;2023-12-07T09:48:05;100678.53;;;-0.53;100.00
65173;BME280;69059;52.218;5.172;2023-12-07T09:50:34;100680.75;;;-0.48;100.00
65173;BME280;69059;52.218;5.172;2023-12-07T09:53:04;100668.53;;;-0.45;100.00
65173;BME280;69059;52.218;5.172;2023-12-07T09:55:34;100663.59;;;-0.59;100.00
65173;BME280;69059;52.218;5.172;2023-12-07T09:58:04;100659.59;;;-0.63;100.00
65173;BME280;69059;52.218;5.172;2023-12-07T10:00:34;100659.16;;;-0.57;100.00
65173;BME280;69059;52.218;5.172;2023-12-07T10:03:02;100658.03;;;-0.53;100.00
65173;BME280;69059;52.218;5.172;2023-12-07T10:05:31;100650.63;;;-0.33;100.00
65173;BME280;69059;52.218;5.172;2023-12-07T10:07:58;100648.06;;;-0.33;100.00
65173;BME280;69059;52.218;5.172;2023-12-07T10:10:28;100635.44;;;-0.37;100.00
65173;BME280;69059;52.218;5.172;2023-12-07T10:12:56;100627.69;;;-0.59;100.00
65173;BME280;69059;52.218;5.172;2023-12-07T10:15:26;100613.69;;;-0.66;100.00
65173;BME280;69059;52.218;5.172;2023-12-07T10:17:56;100617.94;;;-0.54;100.00
65173;BME280;69059;52.218;5.172;2023-12-07T10:20:27;100597.97;;;-0.61;100.00
65173;BME280;69059;52.218;5.172;2023-12-07T10:23:02;100614.91;;;-0.48;100.00
65173;BME280;69059;52.218;5.172;2023-12-07T10:25:32;100611.22;;;-0.32;100.00
65173;BME280;69059;52.218;5.172;2023-12-07T10:28:01;100605.84;;;-0.41;100.00
65173;BME280;69059;52.218;5.172;2023-12-07T10:30:33;100603.63;;;-0.34;100.00
65173;BME280;69059;52.218;5.172;2023-12-07T10:33:02;100598.16;;;-0.41;100.00
65173;BME280;69059;52.218;5.172;2023-12-07T10:35:31;100573.03;;;-0.59;100.00
65173;BME280;69059;52.218;5.172;2023-12-07T10:37:59;100581.44;;;-0.46;100.00
65173;BME280;69059;52.218;5.172;2023-12-07T10:40:27;100582.50;;;-0.38;100.00
65173;BME280;69059;52.218;5.172;2023-12-07T10:42:57;100581.09;;;-0.53;100.00
65173;BME280;69059;52.218;5.172;2023-12-07T10:45:29;100581.13;;;-0.30;100.00
65173;BME280;69059;52.218;5.172;2023-12-07T10:48:02;100570.06;;;-0.20;100.00
65173;BME280;69059;52.218;5.172;2023-12-07T10:50:34;100566.91;;;-0.34;100.00
65173;BME280;69059;52.218;5.172;2023-12-07T10:53:06;100564.81;;;-0.41;100.00
65173;BME280;69059;52.218;5.172;2023-12-07T10:55:42;100545.91;;;-0.51;100.00
65173;BME280;69059;52.218;5.172;2023-12-07T10:58:13;100570.38;;;-0.36;100.00
65173;BME280;69059;52.218;5.172;2023-12-07T11:00:42;100567.28;;;-0.17;100.00
65173;BME280;69059;52.218;5.172;2023-12-07T11:03:15;100540.31;;;-0.22;100.00
65173;BME280;69059;52.218;5.172;2023-12-07T11:05:45;100536.94;;;-0.23;100.00
65173;BME280;69059;52.218;5.172;2023-12-07T11:08:19;100531.69;;;-0.32;100.00
65173;BME280;69059;52.218;5.172;2023-12-07T11:10:58;100525.75;;;-0.22;100.00
65173;BME280;69059;52.218;5.172;2023-12-07T11:13:30;100516.41;;;-0.23;100.00
65173;BME280;69059;52.218;5.172;2023-12-07T11:15:59;100515.69;;;-0.25;100.00
65173;BME280;69059;52.218;5.172;2023-12-07T11:18:28;100518.03;;;-0.22;100.00
65173;BME280;69059;52.218;5.172;2023-12-07T11:20:56;100513.03;;;-0.23;100.00
65173;BME280;69059;52.218;5.172;2023-12-07T11:23:26;100505.22;;;-0.22;100.00
65173;BME280;69059;52.218;5.172;2023-12-07T11:25:55;100497.50;;;-0.11;100.00
65173;BME280;69059;52.218;5.172;2023-12-07T11:28:35;100492.38;;;-0.11;100.00
65173;BME280;69059;52.218;5.172;2023-12-07T11:31:04;100485.88;;;-0.15;100.00
65173;BME280;69059;52.218;5.172;2023-12-07T11:33:33;100483.16;;;-0.24;100.00
65173;BME280;69059;52.218;5.172;2023-12-07T11:36:05;100474.91;;;-0.17;100.00
65173;BME280;69059;52.218;5.172;2023-12-07T11:38:36;100460.78;;;0.00;100.00
65173;BME280;69059;52.218;5.172;2023-12-07T11:41:04;100474.97;;;0.04;100.00
65173;BME280;69059;52.218;5.172;2023-12-07T11:43:44;100469.41;;;-0.01;100.00
65173;BME280;69059;52.218;5.172;2023-12-07T11:46:12;100465.97;;;0.21;100.00
65173;BME280;69059;52.218;5.172;2023-12-07T11:48:48;100465.19;;;0.09;100.00
65173;BME280;69059;52.218;5.172;2023-12-07T11:51:17;100459.84;;;-0.10;100.00
65173;BME280;69059;52.218;5.172;2023-12-07T11:53:45;100456.72;;;-0.14;100.00
65173;BME280;69059;52.218;5.172;2023-12-07T11:56:16;100459.00;;;0.00;100.00
65173;BME280;69059;52.218;5.172;2023-12-07T11:58:48;100452.13;;;-0.10;100.00
65173;BME280;69059;52.218;5.172;2023-12-07T12:01:17;100451.22;;;-0.09;100.00
65173;BME280;69059;52.218;5.172;2023-12-07T12:03:45;100428.47;;;-0.03;100.00
65173;BME280;69059;52.218;5.172;2023-12-07T12:06:12;100417.66;;;0.15;100.00
65173;BME280;69059;52.218;5.172;2023-12-07T12:08:41;100415.22;;;0.24;100.00
65173;BME280;69059;52.218;5.172;2023-12-07T12:11:09;100406.50;;;0.05;100.00
65173;BME280;69059;52.218;5.172;2023-12-07T12:13:37;100402.97;;;0.17;100.00
65173;BME280;69059;52.218;5.172;2023-12-07T12:16:07;100404.31;;;0.00;100.00
65173;BME280;69059;52.218;5.172;2023-12-07T12:18:36;100348.56;;;-0.09;100.00
65173;BME280;69059;52.218;5.172;2023-12-07T12:21:06;100382.25;;;0.29;100.00
65173;BME280;69059;52.218;5.172;2023-12-07T12:23:34;100388.38;;;0.17;100.00
65173;BME280;69059;52.218;5.172;2023-12-07T12:26:03;100393.97;;;0.22;100.00
65173;BME280;69059;52.218;5.172;2023-12-07T12:28:31;100387.13;;;0.12;100.00
65173;BME280;69059;52.218;5.172;2023-12-07T12:31:00;100364.34;;;0.18;100.00
65173;BME280;69059;52.218;5.172;2023-12-07T12:33:30;100371.28;;;0.27;100.00
65173;BME280;69059;52.218;5.172;2023-12-07T12:36:03;100359.28;;;0.28;100.00
65173;BME280;69059;52.218;5.172;2023-12-07T12:38:31;100342.63;;;0.43;100.00
65173;BME280;69059;52.218;5.172;2023-12-07T12:41:08;100332.22;;;0.24;100.00
65173;BME280;69059;52.218;5.172;2023-12-07T12:43:36;100327.91;;;0.24;100.00
65173;BME280;69059;52.218;5.172;2023-12-07T12:46:05;100312.88;;;0.41;100.00
65173;BME280;69059;52.218;5.172;2023-12-07T12:48:34;100306.91;;;0.40;100.00